Time;durP1;ratioP1;P1;durP2;ratioP2;P2;SDS_P1;SDS_P2;PMS_P1;PMS_P2;Temp;Humidity;BMP_temperature;BMP_pressure;BME280_temperature;BME280_humidity;BME280_pressure;Samples;Min_cycle;Max_cycle;Signal;HPM_P1;HPM_P2
2022/05/09 00:01:14;;;;;;;4.97;2.78;;;;;;;10.37;63.96;101361.81;5051423;28;20061;-60
2022/05/09 00:03:42;;;;;;;5.05;3.10;;;;;;;10.33;63.94;101372.72;5050685;28;20119;-60
2022/05/09 00:06:11;;;;;;;5.88;3.20;;;;;;;10.31;64.07;101365.75;5051301;28;20060;-60
2022/05/09 00:08:39;;;;;;;4.63;3.30;;;;;;;10.26;63.94;101360.22;5052446;28;20044;-60
2022/05/09 00:11:07;;;;;;;5.55;2.78;;;;;;;10.23;63.74;101355.22;5051315;28;20057;-60
2022/05/09 00:13:35;;;;;;;6.32;2.92;;;;;;;10.18;64.23;101361.66;5051414;28;20056;-60
2022/05/09 00:16:02;;;;;;;4.97;2.97;;;;;;;10.14;63.90;101363.34;5052134;28;20060;-60
2022/05/09 00:18:30;;;;;;;5.13;3.08;;;;;;;10.15;63.56;101359.47;5051063;28;20053;-60
2022/05/09 00:20:57;;;;;;;3.95;2.70;;;;;;;10.13;64.11;101361.69;5050859;28;20052;-60
2022/05/09 00:23:28;;;;;;;4.55;2.90;;;;;;;10.10;63.92;101363.13;5051521;28;20057;-60
2022/05/09 00:25:55;;;;;;;5.03;2.75;;;;;;;10.08;63.84;101359.78;5051415;28;20053;-60
2022/05/09 00:28:23;;;;;;;3.38;2.58;;;;;;;10.08;63.72;101362.56;5051002;28;20400;-60
2022/05/09 00:30:51;;;;;;;4.10;2.88;;;;;;;10.03;64.04;101357.03;5051705;28;20068;-60
2022/05/09 00:33:18;;;;;;;3.58;2.45;;;;;;;10.01;64.22;101356.47;5055104;28;20072;-60
2022/05/09 00:35:45;;;;;;;8.20;3.20;;;;;;;9.98;64.24;101365.44;5056702;28;20060;-60
2022/05/09 00:38:13;;;;;;;4.50;3.00;;;;;;;9.95;64.34;101364.06;5068770;28;20044;-60
2022/05/09 00:41:28;;;;;;;4.57;3.00;;;;;;;9.92;64.25;101369.34;5061896;28;20064;-60
2022/05/09 00:43:33;;;;;;;4.13;2.97;;;;;;;9.90;64.37;101368.81;5055069;28;20048;-60
2022/05/09 00:46:02;;;;;;;4.97;2.78;;;;;;;9.85;64.61;101361.34;5055891;28;20063;-60
2022/05/09 00:48:29;;;;;;;6.63;2.97;;;;;;;9.84;64.25;101359.66;5054913;28;20413;-60
2022/05/09 00:50:58;;;;;;;5.53;2.80;;;;;;;9.79;64.40;101359.69;5054623;28;20060;-60
2022/05/09 00:53:30;;;;;;;4.22;2.75;;;;;;;9.74;64.76;101363.34;5055433;28;20049;-60
2022/05/09 00:56:02;;;;;;;4.55;2.90;;;;;;;9.74;65.08;101357.78;5054812;28;20061;-60
2022/05/09 00:58:34;;;;;;;3.90;2.65;;;;;;;9.73;65.12;101356.09;5054693;28;20056;-60
2022/05/09 01:01:04;;;;;;;4.20;2.58;;;;;;;9.70;64.89;101358.63;5055373;28;20049;-60
2022/05/09 01:03:40;;;;;;;4.18;2.58;;;;;;;9.70;64.72;101353.91;5055129;28;20053;-60
2022/05/09 01:06:08;;;;;;;3.85;2.67;;;;;;;9.68;64.51;101356.16;5056896;28;20074;-60
2022/05/09 01:08:36;;;;;;;4.20;3.10;;;;;;;9.64;64.72;101352.28;5067472;28;20045;-60
2022/05/09 01:11:09;;;;;;;4.57;2.80;;;;;;;9.64;64.87;101355.06;5064423;28;20053;-60
2022/05/09 01:13:42;;;;;;;4.78;3.10;;;;;;;9.57;65.07;101354.53;5054037;28;20044;-60
2022/05/09 01:16:10;;;;;;;5.80;3.30;;;;;;;9.57;64.65;101353.69;5054480;28;20053;-60
2022/05/09 01:18:38;;;;;;;5.03;2.78;;;;;;;9.57;64.48;101354.53;5054457;28;20489;-60
2022/05/09 01:21:29;;;;;;;3.88;2.65;;;;;;;9.52;64.77;101347.03;5053258;28;20056;-60
2022/05/09 01:23:56;;;;;;;6.13;3.08;;;;;;;9.49;64.38;101352.34;5053962;28;20061;-60
2022/05/09 01:26:24;;;;;;;4.10;3.00;;;;;;;9.44;64.84;101344.84;5054346;28;20053;-60
2022/05/09 01:28:51;;;;;;;4.65;3.30;;;;;;;9.44;65.04;101344.03;5052684;28;20068;-60
2022/05/09 01:31:21;;;;;;;5.82;3.65;;;;;;;9.39;65.26;101341.28;5054330;28;20044;-60
2022/05/09 01:33:51;;;;;;;5.05;3.58;;;;;;;9.37;64.90;101343.53;5053405;28;20065;-60
2022/05/09 01:36:25;;;;;;;4.82;3.28;;;;;;;9.36;64.96;101339.88;5053131;28;20049;-60
2022/05/09 01:38:57;;;;;;;5.53;3.67;;;;;;;9.33;65.40;101330.16;5053677;28;20511;-60
2022/05/09 01:41:25;;;;;;;6.03;3.17;;;;;;;9.31;65.61;101337.97;5054055;28;20052;-60
2022/05/09 01:43:55;;;;;;;4.32;3.28;;;;;;;9.31;65.66;101349.09;5057466;28;20044;-60
2022/05/09 01:46:24;;;;;;;4.20;3.30;;;;;;;9.30;65.19;101338.25;5062880;28;20064;-60
2022/05/09 01:51:43;;;;;;;5.22;3.05;;;;;;;9.29;65.04;101333.81;5058956;28;20056;-60
2022/05/09 01:54:12;;;;;;;7.68;3.85;;;;;;;9.23;65.25;101341.34;5034126;28;20053;-60
2022/05/09 01:56:41;;;;;;;6.72;3.15;;;;;;;9.19;65.41;101344.97;5034283;28;20056;-60
2022/05/09 01:59:11;;;;;;;4.40;3.42;;;;;;;9.14;65.33;101343.88;5053400;28;20052;-60
2022/05/09 02:01:40;;;;;;;;;;;;;;;9.06;65.67;101347.22;5054308;28;20496;-60
2022/05/09 02:04:07;;;;;;;5.05;3.78;;;;;;;9.03;65.72;101353.38;5052479;28;19928;-60
2022/05/09 02:06:35;;;;;;;5.90;2.97;;;;;;;9.03;65.92;101349.72;5056020;28;20056;-59
2022/05/09 02:09:04;;;;;;;6.38;3.63;;;;;;;9.03;66.16;101356.16;5056334;28;20049;-60
2022/05/09 02:11:34;;;;;;;7.57;4.50;;;;;;;8.98;66.23;101344.19;5053308;28;20088;-60
2022/05/09 02:14:02;;;;;;;6.95;4.57;;;;;;;8.92;66.32;101349.78;5053211;28;20052;-60
2022/05/09 02:16:30;;;;;;;6.43;3.45;;;;;;;8.86;66.52;101350.91;5053441;28;20142;-60
2022/05/09 02:18:58;;;;;;;6.88;3.72;;;;;;;8.88;65.76;101345.91;5059314;28;20398;-60
2022/05/09 02:21:26;;;;;;;4.53;3.42;;;;;;;8.88;65.83;101347.81;5053349;28;20056;-60
2022/05/09 02:23:53;;;;;;;6.10;3.35;;;;;;;8.87;66.19;101347.00;5053157;28;20045;-60
2022/05/09 02:26:24;;;;;;;5.45;3.47;;;;;;;8.88;66.40;101336.72;5053417;28;20049;-60
2022/05/09 02:28:51;;;;;;;7.40;3.90;;;;;;;8.85;65.88;101343.69;5052678;28;20049;-60
2022/05/09 02:31:20;;;;;;;5.93;3.58;;;;;;;8.83;66.33;101345.91;5051854;28;20057;-60
2022/05/09 02:33:47;;;;;;;5.75;3.60;;;;;;;8.81;66.29;101336.19;5053077;28;20528;-60
2022/05/09 02:36:15;;;;;;;5.30;4.00;;;;;;;8.83;66.01;101339.53;5053310;28;20045;-59
2022/05/09 02:38:45;;;;;;;4.15;3.28;;;;;;;8.80;66.55;101332.59;5053026;28;20044;-59
2022/05/09 02:41:12;;;;;;;5.03;3.50;;;;;;;8.77;66.78;101335.91;5053253;28;20064;-58
2022/05/09 02:43:41;;;;;;;6.10;3.67;;;;;;;8.81;66.86;101327.84;5052669;28;20040;-59
2022/05/09 02:46:09;;;;;;;6.25;3.80;;;;;;;8.80;66.22;101338.16;5053980;28;20056;-55
2022/05/09 02:48:38;;;;;;;6.97;3.97;;;;;;;8.81;66.38;101331.47;5070115;28;20400;-59
2022/05/09 02:51:06;;;;;;;7.10;4.32;;;;;;;8.78;66.56;101329.25;5052165;28;20107;-58
2022/05/09 02:53:34;;;;;;;4.50;3.20;;;;;;;8.75;66.44;101340.91;5053055;28;20060;-60
2022/05/09 02:56:01;;;;;;;8.30;4.15;;;;;;;8.73;66.37;101330.09;5053224;28;20080;-60
2022/05/09 02:58:28;;;;;;;4.63;3.05;;;;;;;8.74;66.33;101330.94;5052032;28;20421;-60
2022/05/09 03:00:57;;;;;;;6.30;4.13;;;;;;;8.72;67.09;101333.16;5052670;28;20068;-60
2022/05/09 03:06:10;;;;;;;7.10;3.78;;;;;;;8.69;66.87;101337.34;5058561;28;20059;-60
2022/05/09 03:08:37;;;;;;;5.78;3.50;;;;;;;8.68;66.97;101326.50;5052712;28;20060;-59
2022/05/09 03:11:05;;;;;;;5.03;3.90;;;;;;;8.66;66.92;101335.09;5052360;28;20045;-61
2022/05/09 03:13:33;;;;;;;6.13;3.88;;;;;;;8.64;67.02;101330.94;5052477;28;20056;-59
2022/05/09 03:16:02;;;;;;;6.78;4.13;;;;;;;8.62;66.91;101325.66;5056691;28;20408;-60
2022/05/09 03:18:29;;;;;;;5.38;3.92;;;;;;;8.60;66.84;101324.28;5057188;28;20059;-59
2022/05/09 03:20:57;;;;;;;6.60;4.00;;;;;;;8.53;67.19;101328.19;5051105;28;20041;-59
2022/05/09 03:23:24;;;;;;;5.78;4.10;;;;;;;8.52;66.47;101315.44;5052488;28;20053;-60
2022/05/09 03:25:52;;;;;;;6.32;4.20;;;;;;;8.53;66.74;101322.63;5052367;28;20056;-58
2022/05/09 03:28:21;;;;;;;7.13;4.50;;;;;;;8.50;66.58;101323.19;5052291;28;20060;-59
2022/05/09 03:30:50;;;;;;;7.07;4.50;;;;;;;8.48;66.25;101317.09;5051698;28;20403;-60
2022/05/09 03:33:19;;;;;;;5.03;4.20;;;;;;;8.48;67.12;101316.25;5052381;28;20049;-58
2022/05/09 03:35:47;;;;;;;;;;;;;;;8.40;66.95;101314.00;5055563;28;20399;-59
2022/05/09 03:38:14;;;;;;;8.73;4.65;;;;;;;8.37;67.23;101317.34;5060308;28;20288;-60
2022/05/09 03:40:42;;;;;;;6.35;4.20;;;;;;;8.40;67.02;101317.63;5051423;28;20049;-60
2022/05/09 03:43:10;;;;;;;6.57;4.57;;;;;;;8.40;66.66;101312.06;5052362;28;20053;-60
2022/05/09 03:45:39;;;;;;;5.22;4.10;;;;;;;8.41;66.94;101316.53;5051709;28;20053;-59
2022/05/09 03:48:08;;;;;;;6.40;4.43;;;;;;;8.39;67.25;101307.63;5051688;28;20057;-60
2022/05/09 03:50:36;;;;;;;6.18;4.20;;;;;;;8.42;67.03;101312.66;5054613;28;20045;-60
2022/05/09 03:53:04;;;;;;;5.63;4.45;;;;;;;8.41;66.76;101310.16;5051872;28;20055;-59
2022/05/09 03:55:33;;;;;;;10.63;4.50;;;;;;;8.41;66.60;101310.97;5051432;28;20154;-60
2022/05/09 03:58:02;;;;;;;6.68;4.82;;;;;;;8.35;67.73;101317.63;5051564;28;20064;-59
2022/05/09 04:00:32;;;;;;;7.75;4.75;;;;;;;8.41;67.10;101316.53;5059862;28;20497;-59
2022/05/09 04:03:00;;;;;;;8.48;4.82;;;;;;;8.45;67.03;101316.81;5050607;28;20065;-60
2022/05/09 04:05:30;;;;;;;6.03;4.47;;;;;;;8.44;66.88;101316.00;5051657;28;20500;-59
2022/05/09 04:08:00;;;;;;;8.00;4.70;;;;;;;8.48;67.38;101317.09;5050972;28;20057;-59
2022/05/09 04:10:28;;;;;;;;;;;;;;;8.50;67.18;101311.25;5041767;28;20052;-59
2022/05/09 04:12:55;;;;;;;7.32;4.68;;;;;;;8.52;67.83;101311.78;5050949;28;19927;-59
2022/05/09 04:18:08;;;;;;;7.85;4.22;;;;;;;8.72;67.99;101313.72;5061207;28;20079;-59
2022/05/09 04:20:37;;;;;;;9.35;4.43;;;;;;;8.82;67.87;101308.13;5057008;28;20068;-59
2022/05/09 04:23:07;;;;;;;5.65;4.35;;;;;;;8.93;67.86;101304.19;5050563;28;20049;-59
2022/05/09 04:25:34;;;;;;;4.95;4.35;;;;;;;9.07;67.53;101312.78;5051471;28;20489;-60
2022/05/09 04:28:03;;;;;;;7.68;4.65;;;;;;;9.19;67.44;101306.06;5050587;28;20497;-60
2022/05/09 04:30:31;;;;;;;7.38;4.55;;;;;;;9.29;67.34;101309.63;5050767;28;20041;-60
2022/05/09 04:32:58;;;;;;;8.52;4.72;;;;;;;9.43;67.43;101315.41;5050449;28;20060;-60
2022/05/09 04:35:26;;;;;;;6.00;4.13;;;;;;;9.58;66.92;101317.25;5053090;28;20048;-59
2022/05/09 04:38:06;;;;;;;6.82;5.00;;;;;;;9.70;66.73;101314.97;5050817;28;20052;-59
2022/05/09 04:40:36;;;;;;;5.88;4.53;;;;;;;9.86;66.06;101307.31;5051085;28;20057;-59
2022/05/09 04:43:04;;;;;;;7.70;6.82;;;;;;;10.08;65.45;101315.25;5050466;28;20056;-59
2022/05/09 04:45:35;;;;;;;8.50;7.63;;;;;;;10.28;65.39;101317.03;5050293;28;20497;-60
2022/05/09 04:48:03;;;;;;;7.40;6.60;;;;;;;10.47;64.79;101317.16;5047607;28;20049;-59
2022/05/09 04:50:34;;;;;;;6.40;4.63;;;;;;;10.64;63.75;101315.88;5054577;28;20488;-57
2022/05/09 04:53:02;;;;;;;8.68;4.75;;;;;;;10.76;63.24;101317.16;5049704;28;20053;-57
2022/05/09 04:55:31;;;;;;;6.25;4.80;;;;;;;10.87;62.56;101317.88;5050806;28;20053;-59
2022/05/09 04:57:59;;;;;;;7.00;4.97;;;;;;;10.98;61.75;101321.38;5050635;28;20531;-59
2022/05/09 05:00:28;;;;;;;6.20;4.72;;;;;;;11.05;61.64;101319.06;5050517;28;20801;-58
2022/05/09 05:02:57;;;;;;;7.78;4.85;;;;;;;11.12;61.56;101324.28;5063540;28;20053;-58
2022/05/09 05:05:25;;;;;;;7.43;5.13;;;;;;;11.15;61.02;101312.56;5051067;28;21262;-58
2022/05/09 05:07:53;;;;;;;8.07;5.13;;;;;;;11.19;60.68;101310.78;5049954;28;20045;-58
2022/05/09 05:10:22;;;;;;;8.40;5.40;;;;;;;11.12;60.89;101304.75;5050320;28;20076;-59
2022/05/09 05:12:51;;;;;;;6.72;4.68;;;;;;;11.13;61.14;101306.44;5050418;28;20052;-59
2022/05/09 05:15:18;;;;;;;8.02;4.93;;;;;;;11.12;61.21;101313.94;5049508;28;20064;-58
2022/05/09 05:17:46;;;;;;;11.13;5.07;;;;;;;11.11;61.23;101317.06;5045025;28;20048;-58
2022/05/09 05:20:15;;;;;;;9.02;4.82;;;;;;;11.19;61.18;101316.38;5054102;28;20400;-57
2022/05/09 05:22:43;;;;;;;6.85;5.10;;;;;;;11.22;60.92;101309.41;5051872;28;20061;-56
2022/05/09 05:25:13;;;;;;;8.07;5.32;;;;;;;11.23;60.96;101319.41;5054806;28;20053;-57
2022/05/09 05:27:40;;;;;;;8.20;5.68;;;;;;;11.26;60.88;101319.66;5053019;28;20410;-58
2022/05/09 05:30:10;;;;;;;7.00;4.78;;;;;;;11.27;60.96;101318.50;5053211;28;20061;-58
2022/05/09 05:32:39;;;;;;;8.02;5.03;;;;;;;11.27;61.31;101318.50;5054167;28;20057;-58
2022/05/09 05:35:10;;;;;;;8.45;4.82;;;;;;;11.29;61.32;101321.00;5053723;28;20059;-57
2022/05/09 05:37:37;;;;;;;6.40;5.63;;;;;;;11.38;61.16;101319.19;5052323;28;20701;-58
2022/05/09 05:40:05;;;;;;;7.47;5.40;;;;;;;11.43;60.98;101315.53;5053473;28;20053;-59
2022/05/09 05:42:34;;;;;;;7.03;5.43;;;;;;;11.47;61.14;101313.81;5054369;28;20054;-59
2022/05/09 05:45:01;;;;;;;8.15;5.50;;;;;;;11.48;60.95;101309.88;5053498;28;20045;-60
2022/05/09 05:47:30;;;;;;;6.10;5.05;;;;;;;11.50;60.93;101316.81;5053802;28;20068;-60
2022/05/09 05:49:58;;;;;;;7.82;5.63;;;;;;;11.54;60.68;101320.66;5053694;28;20049;-60
2022/05/09 05:52:25;;;;;;;7.57;4.75;;;;;;;11.58;61.07;101318.09;5053314;28;20056;-60
2022/05/09 05:54:53;;;;;;;7.60;5.50;;;;;;;11.66;60.85;101320.22;5051829;28;20049;-59
2022/05/09 05:57:22;;;;;;;7.63;5.15;;;;;;;11.73;60.55;101315.09;5068631;28;20056;-60
2022/05/09 05:59:54;;;;;;;6.45;5.00;;;;;;;11.83;60.16;101311.31;5060167;28;20502;-60
2022/05/09 06:02:23;;;;;;;7.95;5.53;;;;;;;11.90;60.51;101313.75;5052907;28;20056;-60
2022/05/09 06:04:54;;;;;;;9.18;5.72;;;;;;;11.92;60.13;101308.72;5053038;28;20057;-60
2022/05/09 06:07:23;;;;;;;6.20;5.40;;;;;;;11.96;60.44;101318.13;5053640;28;20045;-60
2022/05/09 06:09:51;;;;;;;7.18;5.10;;;;;;;12.06;60.01;101312.41;5053223;28;20053;-60
2022/05/09 06:12:21;;;;;;;5.88;5.07;;;;;;;12.21;59.59;101319.69;5051195;28;20121;-60
2022/05/09 06:15:24;;;;;;;7.50;5.47;;;;;;;12.33;59.56;101306.06;5053538;28;20473;-60
2022/05/09 06:17:38;;;;;;;8.75;5.78;;;;;;;12.41;59.08;101315.72;5049129;28;20057;-53
2022/05/09 06:20:09;;;;;;;8.55;5.82;;;;;;;12.58;58.99;101312.34;5046593;28;20053;-53
2022/05/09 06:22:38;;;;;;;8.15;5.40;;;;;;;12.71;58.66;101310.72;5050234;28;20045;-53
2022/05/09 06:25:09;;;;;;;6.57;5.45;;;;;;;12.86;58.36;101310.41;5057563;28;20060;-52
2022/05/09 06:27:36;;;;;;;7.30;6.13;;;;;;;13.00;58.20;101302.06;5049768;28;20057;-53
2022/05/09 06:30:06;;;;;;;8.40;6.40;;;;;;;13.15;58.26;101301.72;5050586;28;20057;-52
2022/05/09 06:35:20;;;;;;;9.20;6.13;;;;;;;13.50;57.95;101309.69;5060895;28;20526;-53
2022/05/09 06:37:48;;;;;;;7.63;6.20;;;;;;;13.65;56.82;101303.78;5051880;28;20504;-51
2022/05/09 06:40:16;;;;;;;7.03;6.27;;;;;;;13.87;57.04;101302.13;5051617;28;20064;-53
2022/05/09 06:42:46;;;;;;;10.10;6.20;;;;;;;14.00;56.42;101301.25;5050878;28;20060;-52
2022/05/09 06:45:14;;;;;;;12.15;6.78;;;;;;;14.13;55.51;101294.78;5058461;28;20063;-50
2022/05/09 06:47:46;;;;;;;8.93;5.85;;;;;;;14.29;55.03;101305.59;5051743;28;20053;-54
2022/05/09 06:50:14;;;;;;;9.63;6.53;;;;;;;14.44;54.61;101309.97;5059500;28;20049;-51
2022/05/09 06:52:43;;;;;;;7.53;6.00;;;;;;;14.51;53.68;101305.56;5054755;28;20057;-53
2022/05/09 06:55:11;;;;;;;8.75;5.70;;;;;;;14.64;53.67;101305.84;5051171;28;20462;-55
2022/05/09 06:57:38;;;;;;;11.65;5.40;;;;;;;14.73;53.02;101304.72;5048366;28;20052;-50
2022/05/09 07:00:08;;;;;;;8.77;5.28;;;;;;;14.84;52.88;101299.66;5052361;28;20064;-51
2022/05/09 07:02:35;;;;;;;8.60;5.47;;;;;;;14.93;52.53;101306.16;5048619;28;20052;-51
2022/05/09 07:05:04;;;;;;;8.57;5.20;;;;;;;15.04;52.76;101298.28;5051445;28;20496;-52
2022/05/09 07:07:31;;;;;;;8.93;5.32;;;;;;;15.13;52.44;101293.50;5052151;28;20053;-54
2022/05/09 07:10:00;;;;;;;8.73;5.18;;;;;;;15.22;52.03;101290.72;5051712;28;20460;-55
2022/05/09 07:12:27;;;;;;;9.15;5.00;;;;;;;15.37;51.86;101286.63;5052400;28;20055;-54
2022/05/09 07:14:55;;;;;;;8.75;5.35;;;;;;;15.48;51.45;101287.97;5052072;28;20057;-54
2022/05/09 07:17:25;;;;;;;7.78;4.60;;;;;;;15.61;51.83;101286.19;5050505;28;20505;-54
2022/05/09 07:19:52;;;;;;;9.57;5.53;;;;;;;15.69;51.55;101287.34;5052838;28;20064;-51
2022/05/09 07:22:22;;;;;;;7.13;5.15;;;;;;;15.86;51.43;101280.94;5050029;28;20049;-51
2022/05/09 07:24:49;;;;;;;;;;;;;;;16.11;51.17;101280.09;5053284;28;20064;-51
2022/05/09 07:27:18;;;;;;;7.18;4.40;;;;;;;16.97;49.51;101281.03;5049985;28;19925;-53
2022/05/09 07:29:45;;;;;;;10.18;4.65;;;;;;;17.71;48.35;101277.94;5051867;28;20396;-52
2022/05/09 07:32:13;;;;;;;6.18;4.50;;;;;;;18.46;46.58;101273.13;5050921;28;20045;-55
2022/05/09 07:34:40;;;;;;;7.47;4.13;;;;;;;19.12;44.59;101277.00;5052249;28;20057;-54
2022/05/09 07:37:08;;;;;;;4.82;3.90;;;;;;;19.86;43.75;101279.72;5050553;28;20409;-52
2022/05/09 07:39:35;;;;;;;6.05;3.47;;;;;;;20.62;42.96;101277.88;5051956;28;20049;-54
2022/05/09 07:42:02;;;;;;;5.35;3.67;;;;;;;21.40;40.91;101277.38;5053045;28;20049;-53
2022/05/09 07:44:31;;;;;;;5.15;3.80;;;;;;;22.12;38.46;101271.28;5050366;28;20044;-57
2022/05/09 07:46:59;;;;;;;5.32;3.70;;;;;;;22.91;37.00;101264.28;5050283;28;20159;-58
2022/05/09 07:49:27;;;;;;;6.80;4.27;;;;;;;23.68;35.84;101265.06;5055439;28;20060;-56
2022/05/09 07:51:54;;;;;;;6.05;3.80;;;;;;;24.61;33.99;101260.53;5050421;28;20044;-57
2022/05/09 07:54:21;;;;;;;5.18;3.22;;;;;;;25.50;33.08;101265.34;5051464;28;20060;-56
2022/05/09 07:56:50;;;;;;;4.53;3.53;;;;;;;26.20;32.07;101257.53;5051317;28;20053;-56
2022/05/09 07:59:20;;;;;;;6.07;3.37;;;;;;;27.01;30.81;101252.38;5050095;28;20056;-58
2022/05/09 08:01:52;;;;;;;6.72;3.85;;;;;;;28.00;29.33;101251.78;5051448;28;20514;-58
2022/05/09 08:04:19;;;;;;;4.57;3.42;;;;;;;28.78;28.63;101246.84;5049971;28;20583;-58
2022/05/09 08:06:47;;;;;;;4.32;3.13;;;;;;;29.65;27.93;101239.88;5050666;28;20060;-58
2022/05/09 08:09:14;;;;;;;6.32;3.60;;;;;;;30.44;26.53;101241.72;5050203;28;20049;-57
2022/05/09 08:11:42;;;;;;;4.88;3.17;;;;;;;31.25;25.38;101251.53;5049470;28;20373;-58
2022/05/09 08:14:11;;;;;;;4.00;2.88;;;;;;;31.75;24.40;101250.56;5050447;28;20485;-58
2022/05/09 08:16:39;;;;;;;4.50;2.92;;;;;;;32.61;23.32;101248.72;5049850;28;20048;-58
2022/05/09 08:19:11;;;;;;;6.47;2.93;;;;;;;33.12;23.05;101254.91;5068965;28;20468;-57
2022/05/09 08:21:38;;;;;;;5.70;2.72;;;;;;;33.13;22.60;101259.38;5051407;28;20049;-56
2022/05/09 08:24:08;;;;;;;4.63;2.78;;;;;;;33.88;21.52;101247.84;5055008;28;20045;-57
2022/05/09 08:26:36;;;;;;;4.53;2.80;;;;;;;34.49;21.31;101242.31;5051199;28;20045;-57
2022/05/09 08:29:04;;;;;;;;;;;;;;;34.63;21.75;101238.13;5047998;28;20067;-57
2022/05/09 08:31:32;;;;;;;4.85;2.85;;;;;;;35.30;20.60;101240.84;5051419;28;19927;-57
2022/05/09 08:33:59;;;;;;;4.47;3.00;;;;;;;35.83;20.24;101243.06;5045672;28;20068;-57
2022/05/09 08:36:51;;;;;;;5.68;2.50;;;;;;;36.50;19.42;101235.06;5042034;28;20064;-57
2022/05/09 08:39:18;;;;;;;4.43;3.00;;;;;;;36.75;18.95;101236.97;5049265;28;20450;-57
2022/05/09 08:41:57;;;;;;;4.40;2.95;;;;;;;37.40;18.34;101237.91;5050232;28;20433;-57
2022/05/09 08:44:44;;;;;;;4.63;2.60;;;;;;;38.18;17.52;101238.47;5046936;28;20073;-57
2022/05/09 08:47:32;;;;;;;4.70;2.45;;;;;;;38.93;17.16;101236.84;5047224;28;20057;-58
2022/05/09 08:50:13;;;;;;;5.80;2.85;;;;;;;39.44;16.63;101241.72;5059401;28;20056;-58
2022/05/09 08:52:49;;;;;;;4.68;2.50;;;;;;;40.16;16.24;101229.81;5039759;28;20404;-58
2022/05/09 08:55:23;;;;;;;4.85;2.90;;;;;;;40.65;15.71;101221.59;5043801;28;20053;-58
2022/05/09 08:57:55;;;;;;;5.30;2.90;;;;;;;41.65;14.63;101228.53;5054054;28;20052;-58
2022/05/09 09:00:29;;;;;;;3.92;2.40;;;;;;;42.33;15.00;101227.03;5054253;28;20178;-58
2022/05/09 09:03:02;;;;;;;4.85;2.63;;;;;;;42.95;14.27;101231.22;5053972;28;20056;-58
2022/05/09 09:05:35;;;;;;;5.43;3.25;;;;;;;43.50;13.71;101222.41;5055146;28;20053;-58
2022/05/09 09:08:16;;;;;;;5.20;2.80;;;;;;;44.01;13.44;101210.75;5054941;28;20064;-58
2022/05/09 09:10:50;;;;;;;8.25;3.28;;;;;;;44.39;12.99;101215.03;5053559;28;20049;-58
2022/05/09 09:13:33;;;;;;;5.13;2.78;;;;;;;44.37;13.04;101211.84;5053805;28;20732;-58
2022/05/09 09:16:20;;;;;;;5.53;3.10;;;;;;;45.04;12.65;101210.91;5062373;28;20065;-58
2022/05/09 09:19:06;;;;;;;4.43;2.85;;;;;;;45.27;12.37;101205.75;5054796;28;20044;-58
2022/05/09 09:21:42;;;;;;;5.68;3.30;;;;;;;45.79;12.09;101210.00;5053277;28;20059;-58
2022/05/09 09:24:29;;;;;;;6.15;2.95;;;;;;;46.24;11.65;101203.75;5052799;28;20052;-59
2022/05/09 09:27:02;;;;;;;;;;;;;;;45.90;11.46;101204.00;5057291;28;20409;-59
2022/05/09 09:29:34;;;;;;;6.57;2.90;;;;;;;46.44;11.58;101198.78;5050008;28;19928;-59
2022/05/09 09:32:06;;;;;;;3.97;2.55;;;;;;;47.03;10.81;101202.91;5054581;28;20060;-59
2022/05/09 09:34:40;;;;;;;4.18;2.70;;;;;;;47.33;10.33;101204.94;5054617;28;20378;-59
2022/05/09 09:37:14;;;;;;;4.55;2.63;;;;;;;47.28;10.13;101202.88;5053039;28;20068;-59
2022/05/09 09:39:43;;;;;;;3.53;2.40;;;;;;;46.98;11.02;101195.75;5050327;28;20044;-58
2022/05/09 09:42:10;;;;;;;3.60;2.45;;;;;;;47.04;10.88;101197.81;5053462;28;20053;-59
2022/05/09 09:44:38;;;;;;;;;;;;;;;46.95;10.58;101196.84;5054727;28;20064;-59
2022/05/09 09:47:10;;;;;;;5.20;3.40;;;;;;;47.85;10.24;101188.88;5054473;28;19921;-59
2022/05/09 09:49:39;;;;;;;4.25;2.70;;;;;;;47.86;10.62;101190.50;5053474;28;20052;-59
2022/05/09 09:52:20;;;;;;;3.35;2.63;;;;;;;48.15;10.10;101184.88;5053443;28;20049;-59
2022/05/09 09:55:01;;;;;;;5.45;2.90;;;;;;;48.47;10.02;101189.97;5048471;28;20055;-59
2022/05/09 09:57:32;;;;;;;4.53;2.97;;;;;;;48.59;9.76;101173.59;5053264;28;20052;-59
2022/05/09 10:00:15;;;;;;;3.40;2.50;;;;;;;48.95;9.96;101176.09;5054031;28;20049;-59
2022/05/09 10:02:42;;;;;;;5.47;2.70;;;;;;;49.06;9.79;101175.06;5052515;28;20051;-59
2022/05/09 10:05:12;;;;;;;3.90;2.78;;;;;;;49.13;9.24;101171.44;5053532;28;20063;-59
2022/05/09 10:07:43;;;;;;;6.32;2.70;;;;;;;49.60;9.24;101164.69;5052970;28;20063;-59
2022/05/09 10:10:17;;;;;;;4.63;2.65;;;;;;;49.40;9.36;101163.31;5052823;28;20456;-59
2022/05/09 10:12:48;;;;;;;3.83;3.13;;;;;;;49.11;9.25;101159.38;5052910;28;20052;-57
2022/05/09 10:15:29;;;;;;;4.70;2.97;;;;;;;49.25;9.38;101160.94;5052230;28;20049;-61
2022/05/09 10:17:58;;;;;;;4.93;3.00;;;;;;;49.44;9.49;101148.16;5051258;28;20060;-59
2022/05/09 10:20:34;;;;;;;3.47;2.78;;;;;;;49.73;8.83;101161.72;5053669;28;20045;-59
2022/05/09 10:26:04;;;;;;;3.92;3.47;;;;;;;48.88;9.43;101138.34;5052275;28;20491;-59
2022/05/09 10:28:35;;;;;;;7.00;3.33;;;;;;;48.90;10.01;101136.41;5052641;28;20056;-59
2022/05/09 10:31:14;;;;;;;5.45;3.00;;;;;;;49.08;9.57;101143.56;5052671;28;20056;-59
2022/05/09 10:33:50;;;;;;;4.45;3.05;;;;;;;49.38;9.52;101135.66;5052127;28;20049;-59
2022/05/09 10:36:23;;;;;;;5.80;3.30;;;;;;;48.92;10.14;101135.84;5050688;28;20045;-59
2022/05/09 10:38:57;;;;;;;3.55;3.08;;;;;;;49.08;9.82;101131.72;5053254;28;20049;-59
2022/05/09 10:41:36;;;;;;;4.65;3.40;;;;;;;48.53;9.75;101131.53;5050554;28;20052;-59
2022/05/09 10:44:11;;;;;;;5.28;3.38;;;;;;;48.52;9.96;101130.72;5052377;28;20045;-59
2022/05/09 10:46:43;;;;;;;3.50;3.17;;;;;;;48.82;9.85;101125.84;5058368;28;20505;-59
2022/05/09 10:49:26;;;;;;;5.63;3.40;;;;;;;48.74;9.46;101131.66;5052715;28;20052;-59
2022/05/09 10:52:04;;;;;;;4.32;3.40;;;;;;;48.87;9.73;101125.72;5053262;28;20044;-59
2022/05/09 10:54:44;;;;;;;4.18;3.10;;;;;;;48.47;10.00;101122.78;5048680;28;20477;-59
2022/05/09 10:57:20;;;;;;;5.85;3.35;;;;;;;48.60;9.78;101115.25;5051722;28;20056;-59
2022/05/09 10:59:50;;;;;;;3.35;2.92;;;;;;;48.83;10.10;101112.63;5052290;28;20049;-59
2022/05/09 11:02:25;;;;;;;4.75;3.33;;;;;;;48.97;10.00;101117.97;5050443;28;20076;-59
2022/05/09 11:04:53;;;;;;;4.45;3.22;;;;;;;49.28;9.24;101109.47;5054433;28;20044;-59
2022/05/09 11:07:30;;;;;;;4.63;3.15;;;;;;;49.64;9.20;101111.03;5052443;28;20048;-59
2022/05/09 11:10:13;;;;;;;5.13;3.65;;;;;;;48.48;9.26;101096.97;5051414;28;20059;-59
2022/05/09 11:12:52;;;;;;;3.92;3.53;;;;;;;48.46;9.23;101094.56;5052576;28;20049;-59
2022/05/09 11:15:29;;;;;;;4.45;2.97;;;;;;;48.01;9.81;101101.38;5047788;28;20477;-59
2022/05/09 11:18:09;;;;;;;4.43;2.70;;;;;;;46.44;10.91;101102.31;5066464;28;20485;-59
2022/05/09 11:20:47;;;;;;;5.68;3.40;;;;;;;45.46;11.62;101097.03;5065683;28;20057;-59
2022/05/09 11:23:26;;;;;;;4.75;3.08;;;;;;;45.42;11.93;101096.53;5047402;28;20485;-59
2022/05/09 11:26:03;;;;;;;4.68;3.17;;;;;;;45.55;11.96;101093.75;5054996;28;20053;-58
2022/05/09 11:28:56;;;;;;;5.63;3.53;;;;;;;45.96;12.57;101089.13;5051404;28;20076;-59
2022/05/09 11:31:28;;;;;;;5.15;3.45;;;;;;;46.29;10.88;101099.78;5052237;28;20056;-59
2022/05/09 11:34:08;;;;;;;5.82;3.50;;;;;;;46.90;10.74;101093.72;5051853;28;20052;-59
2022/05/09 11:36:59;;;;;;;4.53;3.17;;;;;;;47.27;10.85;101087.00;5052056;28;20061;-59
2022/05/09 11:39:37;;;;;;;4.68;3.08;;;;;;;47.30;10.90;101091.00;5050563;28;20052;-59
2022/05/09 11:45:09;;;;;;;3.15;2.60;;;;;;;47.94;10.52;101072.47;5055085;28;20056;-59
2022/05/09 11:47:46;;;;;;;4.07;2.97;;;;;;;48.01;9.91;101071.81;5051179;28;20067;-59
2022/05/09 11:50:27;;;;;;;3.63;3.08;;;;;;;47.30;10.33;101079.19;5051918;28;20378;-59
2022/05/09 11:52:58;;;;;;;7.30;3.25;;;;;;;47.45;10.26;101067.66;5050650;28;20481;-59
2022/05/09 11:55:27;;;;;;;4.75;3.17;;;;;;;47.46;10.12;101071.41;5055776;28;20044;-59
2022/05/09 11:57:56;;;;;;;5.03;3.28;;;;;;;46.78;10.37;101070.25;5058676;28;20057;-59
2022/05/09 12:00:48;;;;;;;3.58;2.92;;;;;;;46.69;10.61;101064.75;5048358;28;20072;-61
2022/05/09 12:03:52;;;;;;;4.57;3.00;;;;;;;46.60;10.74;101062.16;5042797;28;20500;-60